sensor_id;sensor_type;location;lat;lon;timestamp;pressure;altitude;pressure_sealevel;temperature;humidity
50550;BME280;36505;52.512;13.460;2023-10-09T00:01:01;101776.97;;;11.12;71.96
50550;BME280;36505;52.512;13.460;2023-10-09T00:03:38;101765.31;;;11.16;70.83
50550;BME280;36505;52.512;13.460;2023-10-09T00:06:05;101742.97;;;11.13;70.54
50550;BME280;36505;52.512;13.460;2023-10-09T00:08:30;101736.06;;;11.10;71.13
50550;BME280;36505;52.512;13.460;2023-10-09T00:11:00;101738.41;;;11.06;71.58
50550;BME280;36505;52.512;13.460;2023-10-09T00:13:43;101739.91;;;11.02;72.07
50550;BME280;36505;52.512;13.460;2023-10-09T00:16:20;101738.44;;;11.00;72.93
50550;BME280;36505;52.512;13.460;2023-10-09T00:19:02;101733.25;;;10.92;72.76
50550;BME280;36505;52.512;13.460;2023-10-09T00:21:48;101726.53;;;10.88;73.92
50550;BME280;36505;52.512;13.460;2023-10-09T00:24:14;101724.06;;;10.80;74.05
50550;BME280;36505;52.512;13.460;2023-10-09T00:26:48;101715.25;;;10.78;75.54
50550;BME280;36505;52.512;13.460;2023-10-09T00:29:15;101713.56;;;10.77;76.16
50550;BME280;36505;52.512;13.460;2023-10-09T00:31:53;101708.09;;;10.77;76.58
50550;BME280;36505;52.512;13.460;2023-10-09T00:34:42;101697.13;;;10.77;78.60
50550;BME280;36505;52.512;13.460;2023-10-09T00:37:11;101701.75;;;10.76;78.44
50550;BME280;36505;52.512;13.460;2023-10-09T00:39:47;101701.97;;;10.75;79.93
50550;BME280;36505;52.512;13.460;2023-10-09T00:42:14;101681.75;;;10.76;80.64
50550;BME280;36505;52.512;13.460;2023-10-09T00:44:53;101688.28;;;10.75;80.67
50550;BME280;36505;52.512;13.460;2023-10-09T00:47:18;101684.06;;;10.72;81.01
50550;BME280;36505;52.512;13.460;2023-10-09T00:50:03;101675.69;;;10.67;80.66
50550;BME280;36505;52.512;13.460;2023-10-09T00:52:44;101682.91;;;10.61;81.38
50550;BME280;36505;52.512;13.460;2023-10-09T00:55:19;101685.03;;;10.59;83.09
50550;BME280;36505;52.512;13.460;2023-10-09T00:57:54;101668.22;;;10.56;83.14
50550;BME280;36505;52.512;13.460;2023-10-09T01:00:25;101661.06;;;10.55;82.65
50550;BME280;36505;52.512;13.460;2023-10-09T01:03:01;101655.16;;;10.51;83.07
50550;BME280;36505;52.512;13.460;2023-10-09T01:05:36;101654.16;;;10.46;83.10
50550;BME280;36505;52.512;13.460;2023-10-09T01:08:03;101651.88;;;10.43;82.79
50550;BME280;36505;52.512;13.460;2023-10-09T01:10:47;101651.47;;;10.39;84.17
50550;BME280;36505;52.512;13.460;2023-10-09T01:13:17;101640.50;;;10.39;84.95
50550;BME280;36505;52.512;13.460;2023-10-09T01:15:43;101629.78;;;10.38;85.54
50550;BME280;36505;52.512;13.460;2023-10-09T01:18:10;101624.59;;;10.29;84.37
50550;BME280;36505;52.512;13.460;2023-10-09T01:20:35;101623.75;;;10.29;85.78
50550;BME280;36505;52.512;13.460;2023-10-09T01:23:09;101616.19;;;10.24;86.43
50550;BME280;36505;52.512;13.460;2023-10-09T01:25:34;101615.75;;;10.27;87.37
50550;BME280;36505;52.512;13.460;2023-10-09T01:28:09;101602.69;;;10.29;87.55
50550;BME280;36505;52.512;13.460;2023-10-09T01:30:34;101586.44;;;10.35;88.97
50550;BME280;36505;52.512;13.460;2023-10-09T01:32:59;101585.81;;;10.33;88.17
50550;BME280;36505;52.512;13.460;2023-10-09T01:35:37;101574.84;;;10.33;87.31
50550;BME280;36505;52.512;13.460;2023-10-09T01:38:11;101562.28;;;10.25;87.77
50550;BME280;36505;52.512;13.460;2023-10-09T01:40:39;101548.88;;;10.10;88.25
50550;BME280;36505;52.512;13.460;2023-10-09T01:43:05;101539.22;;;10.08;89.28
50550;BME280;36505;52.512;13.460;2023-10-09T01:45:35;101535.03;;;10.05;89.89
50550;BME280;36505;52.512;13.460;2023-10-09T01:48:07;101520.72;;;10.03;90.42
50550;BME280;36505;52.512;13.460;2023-10-09T01:50:33;101513.19;;;9.99;89.23
50550;BME280;36505;52.512;13.460;2023-10-09T01:53:03;101509.28;;;9.88;89.22
50550;BME280;36505;52.512;13.460;2023-10-09T01:55:31;101486.66;;;9.74;90.12
50550;BME280;36505;52.512;13.460;2023-10-09T01:58:04;101490.28;;;9.68;90.55
50550;BME280;36505;52.512;13.460;2023-10-09T02:00:48;101508.78;;;9.66;90.86
50550;BME280;36505;52.512;13.460;2023-10-09T02:03:15;101503.31;;;9.66;91.15
50550;BME280;36505;52.512;13.460;2023-10-09T02:05:44;101505.00;;;9.67;91.43
50550;BME280;36505;52.512;13.460;2023-10-09T02:08:09;101485.03;;;9.67;91.62
50550;BME280;36505;52.512;13.460;2023-10-09T02:10:38;101481.63;;;9.71;91.60
50550;BME280;36505;52.512;13.460;2023-10-09T02:13:06;101483.91;;;9.74;91.83
50550;BME280;36505;52.512;13.460;2023-10-09T02:15:34;101486.88;;;9.73;91.91
50550;BME280;36505;52.512;13.460;2023-10-09T02:18:05;101493.59;;;9.70;92.16
50550;BME280;36505;52.512;13.460;2023-10-09T02:20:42;101489.81;;;9.71;92.62
50550;BME280;36505;52.512;13.460;2023-10-09T02:23:10;101500.75;;;9.71;93.07
50550;BME280;36505;52.512;13.460;2023-10-09T02:25:41;101504.34;;;9.72;94.00
50550;BME280;36505;52.512;13.460;2023-10-09T02:28:10;101491.06;;;9.75;94.32
50550;BME280;36505;52.512;13.460;2023-10-09T02:30:45;101472.94;;;9.81;94.55
50550;BME280;36505;52.512;13.460;2023-10-09T02:33:17;101473.72;;;9.88;94.76
50550;BME280;36505;52.512;13.460;2023-10-09T02:35:56;101482.94;;;9.94;94.97
50550;BME280;36505;52.512;13.460;2023-10-09T02:38:24;101493.66;;;9.95;94.73
50550;BME280;36505;52.512;13.460;2023-10-09T02:40:51;101497.00;;;9.97;94.97
50550;BME280;36505;52.512;13.460;2023-10-09T02:43:29;101493.72;;;9.88;94.72
50550;BME280;36505;52.512;13.460;2023-10-09T02:46:00;101501.19;;;10.00;96.05
50550;BME280;36505;52.512;13.460;2023-10-09T02:48:38;101490.88;;;10.02;95.49
50550;BME280;36505;52.512;13.460;2023-10-09T02:51:08;101466.41;;;10.07;95.63
50550;BME280;36505;52.512;13.460;2023-10-09T02:53:40;101455.41;;;10.13;96.36
50550;BME280;36505;52.512;13.460;2023-10-09T02:56:05;101449.28;;;10.18;96.55
50550;BME280;36505;52.512;13.460;2023-10-09T02:58:42;101449.72;;;10.15;95.11
50550;BME280;36505;52.512;13.460;2023-10-09T03:01:12;101443.63;;;10.13;95.68
50550;BME280;36505;52.512;13.460;2023-10-09T03:03:40;101440.88;;;10.13;95.77
50550;BME280;36505;52.512;13.460;2023-10-09T03:06:09;101442.78;;;10.12;96.48
50550;BME280;36505;52.512;13.460;2023-10-09T03:08:37;101438.81;;;10.08;96.05
50550;BME280;36505;52.512;13.460;2023-10-09T03:11:02;101430.22;;;10.05;96.11
50550;BME280;36505;52.512;13.460;2023-10-09T03:13:31;101426.63;;;10.04;96.88
50550;BME280;36505;52.512;13.460;2023-10-09T03:15:58;101425.78;;;10.04;96.70
50550;BME280;36505;52.512;13.460;2023-10-09T03:18:23;101417.84;;;10.02;97.17
50550;BME280;36505;52.512;13.460;2023-10-09T03:20:49;101411.75;;;10.00;97.06
50550;BME280;36505;52.512;13.460;2023-10-09T03:23:15;101390.28;;;9.97;97.28
50550;BME280;36505;52.512;13.460;2023-10-09T03:25:41;101391.59;;;9.95;97.98
50550;BME280;36505;52.512;13.460;2023-10-09T03:28:10;101381.94;;;9.92;97.88
50550;BME280;36505;52.512;13.460;2023-10-09T03:30:36;101387.03;;;9.88;97.84
50550;BME280;36505;52.512;13.460;2023-10-09T03:33:05;101372.78;;;9.80;98.02
50550;BME280;36505;52.512;13.460;2023-10-09T03:35:32;101368.16;;;9.80;99.03
50550;BME280;36505;52.512;13.460;2023-10-09T03:38:00;101366.19;;;9.87;100.00
50550;BME280;36505;52.512;13.460;2023-10-09T03:40:25;101355.84;;;9.89;99.79
50550;BME280;36505;52.512;13.460;2023-10-09T03:42:52;101347.81;;;9.95;100.00
50550;BME280;36505;52.512;13.460;2023-10-09T03:45:19;101341.09;;;9.90;98.66
50550;BME280;36505;52.512;13.460;2023-10-09T03:47:58;101329.78;;;9.87;98.27
50550;BME280;36505;52.512;13.460;2023-10-09T03:50:28;101325.22;;;9.81;98.37
50550;BME280;36505;52.512;13.460;2023-10-09T03:53:01;101306.31;;;9.79;99.55
50550;BME280;36505;52.512;13.460;2023-10-09T03:55:28;101306.31;;;9.79;99.41
50550;BME280;36505;52.512;13.460;2023-10-09T03:57:55;101300.44;;;9.76;99.96
50550;BME280;36505;52.512;13.460;2023-10-09T04:00:23;101311.91;;;9.66;99.20
50550;BME280;36505;52.512;13.460;2023-10-09T04:02:56;101314.22;;;9.63;99.89
50550;BME280;36505;52.512;13.460;2023-10-09T04:05:23;101315.31;;;9.62;100.00
50550;BME280;36505;52.512;13.460;2023-10-09T04:07:48;101322.44;;;9.63;100.00
50550;BME280;36505;52.512;13.460;2023-10-09T04:10:14;101338.41;;;9.66;100.00
50550;BME280;36505;52.512;13.460;2023-10-09T04:12:59;101358.22;;;9.61;100.00
50550;BME280;36505;52.512;13.460;2023-10-09T04:15:26;101350.03;;;9.61;100.00
50550;BME280;36505;52.512;13.460;2023-10-09T04:17:55;101355.66;;;9.66;100.00
50550;BME280;36505;52.512;13.460;2023-10-09T04:20:22;101353.06;;;9.71;100.00
50550;BME280;36505;52.512;13.460;2023-10-09T04:22:47;101358.56;;;9.71;99.96
50550;BME280;36505;52.512;13.460;2023-10-09T04:25:20;101343.66;;;9.67;99.53
50550;BME280;36505;52.512;13.460;2023-10-09T04:27:56;101323.63;;;9.73;99.76
50550;BME280;36505;52.512;13.460;2023-10-09T04:30:38;101319.47;;;9.64;98.68
50550;BME280;36505;52.512;13.460;2023-10-09T04:33:11;101312.94;;;9.47;99.05
50550;BME280;36505;52.512;13.460;2023-10-09T04:35:46;101288.97;;;9.42;100.00
50550;BME280;36505;52.512;13.460;2023-10-09T04:38:31;101317.66;;;9.33;100.00
50550;BME280;36505;52.512;13.460;2023-10-09T04:40:59;101325.66;;;9.28;100.00
50550;BME280;36505;52.512;13.460;2023-10-09T04:43:24;101323.59;;;9.24;100.00
50550;BME280;36505;52.512;13.460;2023-10-09T04:45:51;101329.91;;;9.24;100.00
50550;BME280;36505;52.512;13.460;2023-10-09T04:48:31;101327.00;;;9.19;100.00
50550;BME280;36505;52.512;13.460;2023-10-09T04:51:17;101324.22;;;9.26;100.00
50550;BME280;36505;52.512;13.460;2023-10-09T04:53:49;101324.84;;;9.28;100.00
50550;BME280;36505;52.512;13.460;2023-10-09T04:56:33;101323.59;;;9.24;100.00
50550;BME280;36505;52.512;13.460;2023-10-09T04:58:59;101319.97;;;9.30;100.00
50550;BME280;36505;52.512;13.460;2023-10-09T05:01:32;101324.41;;;9.31;100.00
50550;BME280;36505;52.512;13.460;2023-10-09T05:04:10;101304.66;;;9.29;100.00
50550;BME280;36505;52.512;13.460;2023-10-09T05:06:54;101304.59;;;9.35;100.00
50550;BME280;36505;52.512;13.460;2023-10-09T05:09:21;101295.13;;;9.38;100.00
50550;BME280;36505;52.512;13.460;2023-10-09T05:11:47;101295.34;;;9.36;100.00
50550;BME280;36505;52.512;13.460;2023-10-09T05:14:21;101291.22;;;9.27;100.00
50550;BME280;36505;52.512;13.460;2023-10-09T05:17:03;101292.09;;;9.21;100.00
50550;BME280;36505;52.512;13.460;2023-10-09T05:19:29;101300.34;;;9.15;100.00
50550;BME280;36505;52.512;13.460;2023-10-09T05:22:14;101293.81;;;9.16;100.00
50550;BME280;36505;52.512;13.460;2023-10-09T05:25:01;101292.13;;;9.15;100.00
50550;BME280;36505;52.512;13.460;2023-10-09T05:27:27;101300.34;;;9.15;100.00
50550;BME280;36505;52.512;13.460;2023-10-09T05:30:15;101293.03;;;9.08;100.00
50550;BME280;36505;52.512;13.460;2023-10-09T05:32:59;101289.28;;;9.03;100.00
50550;BME280;36505;52.512;13.460;2023-10-09T05:35:44;101299.63;;;8.94;100.00
50550;BME280;36505;52.512;13.460;2023-10-09T05:38:30;101299.25;;;8.91;100.00
50550;BME280;36505;52.512;13.460;2023-10-09T05:40:56;101293.22;;;8.82;100.00
50550;BME280;36505;52.512;13.460;2023-10-09T05:43:41;101285.66;;;8.84;100.00
50550;BME280;36505;52.512;13.460;2023-10-09T05:46:25;101279.72;;;8.87;100.00
50550;BME280;36505;52.512;13.460;2023-10-09T05:49:00;101291.44;;;8.94;100.00
50550;BME280;36505;52.512;13.460;2023-10-09T05:51:35;101282.69;;;8.86;100.00
50550;BME280;36505;52.512;13.460;2023-10-09T05:54:11;101289.03;;;8.80;100.00
50550;BME280;36505;52.512;13.460;2023-10-09T05:56:48;101303.50;;;8.87;100.00
50550;BME280;36505;52.512;13.460;2023-10-09T05:59:32;101305.78;;;8.90;100.00
50550;BME280;36505;52.512;13.460;2023-10-09T06:02:17;101303.44;;;8.93;100.00
50550;BME280;36505;52.512;13.460;2023-10-09T06:05:03;101298.84;;;8.94;100.00
50550;BME280;36505;52.512;13.460;2023-10-09T06:07:44;101288.91;;;8.99;100.00
50550;BME280;36505;52.512;13.460;2023-10-09T06:10:29;101291.81;;;9.04;100.00
50550;BME280;36505;52.512;13.460;2023-10-09T06:13:05;101289.19;;;9.16;100.00
50550;BME280;36505;52.512;13.460;2023-10-09T06:15:37;101290.81;;;9.24;100.00
50550;BME280;36505;52.512;13.460;2023-10-09T06:18:08;101290.66;;;9.19;100.00
50550;BME280;36505;52.512;13.460;2023-10-09T06:21:06;101283.66;;;9.23;100.00
50550;BME280;36505;52.512;13.460;2023-10-09T06:23:55;101278.16;;;9.29;100.00
50550;BME280;36505;52.512;13.460;2023-10-09T06:26:39;101274.78;;;9.34;99.26
50550;BME280;36505;52.512;13.460;2023-10-09T06:29:15;101280.03;;;9.29;97.88
50550;BME280;36505;52.512;13.460;2023-10-09T06:31:42;101275.09;;;9.19;98.30
50550;BME280;36505;52.512;13.460;2023-10-09T06:34:23;101279.56;;;9.14;98.87
50550;BME280;36505;52.512;13.460;2023-10-09T06:36:59;101276.59;;;9.15;99.74
50550;BME280;36505;52.512;13.460;2023-10-09T06:39:31;101270.47;;;9.20;99.09
50550;BME280;36505;52.512;13.460;2023-10-09T06:42:15;101264.53;;;9.23;98.75
50550;BME280;36505;52.512;13.460;2023-10-09T06:45:03;101271.47;;;9.25;98.27
50550;BME280;36505;52.512;13.460;2023-10-09T06:47:34;101269.13;;;9.29;98.39
50550;BME280;36505;52.512;13.460;2023-10-09T06:52:54;101268.69;;;9.32;98.34
50550;BME280;36505;52.512;13.460;2023-10-09T06:55:23;101271.69;;;9.24;98.22
50550;BME280;36505;52.512;13.460;2023-10-09T06:57:59;101256.97;;;9.25;99.28
50550;BME280;36505;52.512;13.460;2023-10-09T07:00:27;101256.97;;;9.25;99.35
50550;BME280;36505;52.512;13.460;2023-10-09T07:03:12;101246.13;;;9.36;100.00
50550;BME280;36505;52.512;13.460;2023-10-09T07:05:38;101242.06;;;9.45;100.00
50550;BME280;36505;52.512;13.460;2023-10-09T07:08:22;101253.84;;;9.46;98.34
50550;BME280;36505;52.512;13.460;2023-10-09T07:10:57;101249.88;;;9.42;98.11
50550;BME280;36505;52.512;13.460;2023-10-09T07:13:42;101249.72;;;9.37;97.99
50550;BME280;36505;52.512;13.460;2023-10-09T07:16:09;101255.72;;;9.45;98.89
50550;BME280;36505;52.512;13.460;2023-10-09T07:18:55;101256.88;;;9.56;98.76
50550;BME280;36505;52.512;13.460;2023-10-09T07:21:21;101254.34;;;9.61;97.84
50550;BME280;36505;52.512;13.460;2023-10-09T07:23:54;101247.94;;;9.67;96.88
50550;BME280;36505;52.512;13.460;2023-10-09T07:26:22;101248.53;;;9.69;96.54
50550;BME280;36505;52.512;13.460;2023-10-09T07:29:03;101247.19;;;9.78;96.19
50550;BME280;36505;52.512;13.460;2023-10-09T07:31:42;101245.91;;;9.81;96.02
50550;BME280;36505;52.512;13.460;2023-10-09T07:34:11;101253.28;;;9.80;95.84
50550;BME280;36505;52.512;13.460;2023-10-09T07:37:08;101259.03;;;9.90;95.17
50550;BME280;36505;52.512;13.460;2023-10-09T07:39:34;101258.59;;;9.94;95.76
50550;BME280;36505;52.512;13.460;2023-10-09T07:42:03;101263.84;;;9.95;94.40
50550;BME280;36505;52.512;13.460;2023-10-09T07:44:51;101250.41;;;9.94;95.16
50550;BME280;36505;52.512;13.460;2023-10-09T07:47:20;101249.63;;;9.86;95.56
50550;BME280;36505;52.512;13.460;2023-10-09T07:49:58;101267.31;;;9.84;96.51
50550;BME280;36505;52.512;13.460;2023-10-09T07:52:24;101269.00;;;9.85;97.04
50550;BME280;36505;52.512;13.460;2023-10-09T07:54:51;101269.34;;;9.70;97.27
50550;BME280;36505;52.512;13.460;2023-10-09T07:57:20;101268.16;;;9.66;97.63
50550;BME280;36505;52.512;13.460;2023-10-09T07:59:51;101271.31;;;9.63;98.41
50550;BME280;36505;52.512;13.460;2023-10-09T08:02:21;101273.84;;;9.65;98.32
50550;BME280;36505;52.512;13.460;2023-10-09T08:05:00;101287.28;;;9.66;99.44
50550;BME280;36505;52.512;13.460;2023-10-09T08:07:30;101295.09;;;9.63;99.05
50550;BME280;36505;52.512;13.460;2023-10-09T08:10:04;101295.44;;;9.73;99.45
50550;BME280;36505;52.512;13.460;2023-10-09T08:12:40;101301.28;;;9.76;98.20
50550;BME280;36505;52.512;13.460;2023-10-09T08:15:06;101303.13;;;9.82;97.72
50550;BME280;36505;52.512;13.460;2023-10-09T08:17:47;101313.53;;;9.92;97.64
50550;BME280;36505;52.512;13.460;2023-10-09T08:20:21;101321.38;;;9.88;96.73
50550;BME280;36505;52.512;13.460;2023-10-09T08:22:51;101320.59;;;9.81;96.38
50550;BME280;36505;52.512;13.460;2023-10-09T08:25:18;101319.75;;;9.81;97.52
50550;BME280;36505;52.512;13.460;2023-10-09T08:27:58;101322.66;;;9.86;97.38
50550;BME280;36505;52.512;13.460;2023-10-09T08:30:44;101319.00;;;9.92;97.40
50550;BME280;36505;52.512;13.460;2023-10-09T08:33:16;101313.75;;;9.90;96.92
50550;BME280;36505;52.512;13.460;2023-10-09T08:35:51;101312.06;;;9.89;96.65
50550;BME280;36505;52.512;13.460;2023-10-09T08:38:20;101305.09;;;9.75;97.06
50550;BME280;36505;52.512;13.460;2023-10-09T08:40:49;101308.69;;;9.69;97.06
50550;BME280;36505;52.512;13.460;2023-10-09T08:43:21;101304.69;;;9.72;97.44
50550;BME280;36505;52.512;13.460;2023-10-09T08:45:55;101310.16;;;9.72;96.24
50550;BME280;36505;52.512;13.460;2023-10-09T08:48:26;101309.78;;;9.68;96.57
50550;BME280;36505;52.512;13.460;2023-10-09T08:50:53;101309.78;;;9.68;97.43
50550;BME280;36505;52.512;13.460;2023-10-09T08:53:23;101313.50;;;9.74;97.93
50550;BME280;36505;52.512;13.460;2023-10-09T08:55:49;101308.13;;;9.85;98.08
50550;BME280;36505;52.512;13.460;2023-10-09T08:58:17;101300.53;;;9.87;96.47
50550;BME280;36505;52.512;13.460;2023-10-09T09:00:56;101301.19;;;9.83;96.30
50550;BME280;36505;52.512;13.460;2023-10-09T09:03:24;101293.25;;;9.81;96.31
50550;BME280;36505;52.512;13.460;2023-10-09T09:06:01;101287.47;;;9.89;96.48
50550;BME280;36505;52.512;13.460;2023-10-09T09:08:28;101296.97;;;9.87;96.10
50550;BME280;36505;52.512;13.460;2023-10-09T09:11:02;101288.06;;;9.91;96.41
50550;BME280;36505;52.512;13.460;2023-10-09T09:16:25;101289.06;;;9.97;96.59
50550;BME280;36505;52.512;13.460;2023-10-09T09:21:42;101274.19;;;9.93;95.25
50550;BME280;36505;52.512;13.460;2023-10-09T09:24:10;101273.75;;;9.96;95.36
50550;BME280;36505;52.512;13.460;2023-10-09T09:26:43;101270.31;;;10.01;95.51
50550;BME280;36505;52.512;13.460;2023-10-09T09:29:15;101275.91;;;10.06;95.80
50550;BME280;36505;52.512;13.460;2023-10-09T09:31:54;101273.72;;;10.14;95.83
50550;BME280;36505;52.512;13.460;2023-10-09T09:34:20;101270.59;;;10.11;95.26
50550;BME280;36505;52.512;13.460;2023-10-09T09:36:55;101273.09;;;10.12;95.85
50550;BME280;36505;52.512;13.460;2023-10-09T09:39:30;101272.22;;;10.18;95.79
50550;BME280;36505;52.512;13.460;2023-10-09T09:41:58;101276.19;;;10.22;95.03
50550;BME280;36505;52.512;13.460;2023-10-09T09:44:34;101279.16;;;10.21;94.30
50550;BME280;36505;52.512;13.460;2023-10-09T09:47:09;101285.28;;;10.16;94.56
50550;BME280;36505;52.512;13.460;2023-10-09T09:49:40;101291.91;;;10.09;94.01
50550;BME280;36505;52.512;13.460;2023-10-09T09:52:06;101295.22;;;10.11;94.31
50550;BME280;36505;52.512;13.460;2023-10-09T09:54:38;101279.94;;;10.03;94.08
50550;BME280;36505;52.512;13.460;2023-10-09T09:57:05;101305.59;;;10.09;94.05
50550;BME280;36505;52.512;13.460;2023-10-09T09:59:38;101302.78;;;10.15;94.46
50550;BME280;36505;52.512;13.460;2023-10-09T10:02:20;101295.94;;;10.24;94.37
50550;BME280;36505;52.512;13.460;2023-10-09T10:04:49;101296.03;;;10.36;93.03
50550;BME280;36505;52.512;13.460;2023-10-09T10:07:16;101288.88;;;10.35;92.55
50550;BME280;36505;52.512;13.460;2023-10-09T10:09:46;101293.66;;;10.40;92.70
50550;BME280;36505;52.512;13.460;2023-10-09T10:12:13;101301.41;;;10.43;92.69
50550;BME280;36505;52.512;13.460;2023-10-09T10:14:56;101291.53;;;10.42;92.42
50550;BME280;36505;52.512;13.460;2023-10-09T10:17:30;101300.28;;;10.32;92.20
50550;BME280;36505;52.512;13.460;2023-10-09T10:22:26;101280.03;;;10.33;92.98
50550;BME280;36505;52.512;13.460;2023-10-09T10:24:53;101282.69;;;10.40;92.31
50550;BME280;36505;52.512;13.460;2023-10-09T10:27:21;101286.75;;;10.37;92.01
50550;BME280;36505;52.512;13.460;2023-10-09T10:30:27;101289.22;;;10.39;92.88
50550;BME280;36505;52.512;13.460;2023-10-09T10:32:59;101280.56;;;10.42;92.88
50550;BME280;36505;52.512;13.460;2023-10-09T10:35:45;101275.47;;;10.45;92.89
50550;BME280;36505;52.512;13.460;2023-10-09T10:38:28;101268.22;;;10.51;92.66
50550;BME280;36505;52.512;13.460;2023-10-09T10:41:13;101267.16;;;10.52;92.57
50550;BME280;36505;52.512;13.460;2023-10-09T10:43:45;101265.78;;;10.61;92.85
50550;BME280;36505;52.512;13.460;2023-10-09T10:46:21;101269.97;;;10.63;91.61
50550;BME280;36505;52.512;13.460;2023-10-09T10:49:06;101275.44;;;10.63;90.99
50550;BME280;36505;52.512;13.460;2023-10-09T10:51:37;101273.53;;;10.64;91.23
50550;BME280;36505;52.512;13.460;2023-10-09T10:54:04;101274.13;;;10.66;90.25
50550;BME280;36505;52.512;13.460;2023-10-09T10:56:49;101265.06;;;10.65;89.57
50550;BME280;36505;52.512;13.460;2023-10-09T10:59:20;101274.03;;;10.73;89.53
50550;BME280;36505;52.512;13.460;2023-10-09T11:01:49;101265.97;;;10.78;88.76
50550;BME280;36505;52.512;13.460;2023-10-09T11:04:45;101272.25;;;10.78;89.38
50550;BME280;36505;52.512;13.460;2023-10-09T11:07:21;101270.84;;;10.76;88.71
50550;BME280;36505;52.512;13.460;2023-10-09T11:09:54;101270.34;;;10.79;89.25
50550;BME280;36505;52.512;13.460;2023-10-09T11:12:50;101258.66;;;10.72;88.76
50550;BME280;36505;52.512;13.460;2023-10-09T11:15:33;101263.06;;;10.73;89.19
50550;BME280;36505;52.512;13.460;2023-10-09T11:18:23;101259.25;;;10.62;89.75
50550;BME280;36505;52.512;13.460;2023-10-09T11:20:53;101266.75;;;10.66;89.78
50550;BME280;36505;52.512;13.460;2023-10-09T11:23:40;101251.75;;;10.69;89.68
50550;BME280;36505;52.512;13.460;2023-10-09T11:26:19;101249.16;;;10.74;88.86
50550;BME280;36505;52.512;13.460;2023-10-09T11:29:10;101256.53;;;10.74;88.63
50550;BME280;36505;52.512;13.460;2023-10-09T11:32:03;101250.97;;;10.80;88.67
50550;BME280;36505;52.512;13.460;2023-10-09T11:34:34;101248.72;;;10.89;88.93
50550;BME280;36505;52.512;13.460;2023-10-09T11:39:36;101233.88;;;11.08;89.19
50550;BME280;36505;52.512;13.460;2023-10-09T11:42:07;101237.94;;;11.17;88.29
50550;BME280;36505;52.512;13.460;2023-10-09T11:44:41;101242.47;;;11.23;88.56
50550;BME280;36505;52.512;13.460;2023-10-09T11:47:11;101244.03;;;11.31;87.52
50550;BME280;36505;52.512;13.460;2023-10-09T11:49:59;101216.97;;;11.23;87.13
50550;BME280;36505;52.512;13.460;2023-10-09T11:52:31;101232.22;;;11.42;86.75
50550;BME280;36505;52.512;13.460;2023-10-09T11:54:58;101234.97;;;11.54;86.77
50550;BME280;36505;52.512;13.460;2023-10-09T11:57:24;101222.94;;;11.55;86.04
50550;BME280;36505;52.512;13.460;2023-10-09T11:59:56;101229.25;;;11.55;86.16
50550;BME280;36505;52.512;13.460;2023-10-09T12:02:22;101230.69;;;11.58;86.60
50550;BME280;36505;52.512;13.460;2023-10-09T12:04:48;101218.66;;;11.59;85.39
50550;BME280;36505;52.512;13.460;2023-10-09T12:07:14;101214.00;;;11.59;85.92
50550;BME280;36505;52.512;13.460;2023-10-09T12:09:40;101208.38;;;11.66;85.41
50550;BME280;36505;52.512;13.460;2023-10-09T12:12:07;101207.06;;;11.68;85.10
50550;BME280;36505;52.512;13.460;2023-10-09T12:14:33;101207.31;;;11.78;85.66
50550;BME280;36505;52.512;13.460;2023-10-09T12:17:02;101198.25;;;11.78;84.36
50550;BME280;36505;52.512;13.460;2023-10-09T12:19:38;101215.06;;;11.81;84.05
50550;BME280;36505;52.512;13.460;2023-10-09T12:22:08;101222.72;;;11.79;83.54
50550;BME280;36505;52.512;13.460;2023-10-09T12:24:41;101216.41;;;11.79;84.81
50550;BME280;36505;52.512;13.460;2023-10-09T12:27:09;101215.06;;;11.81;84.52
50550;BME280;36505;52.512;13.460;2023-10-09T12:29:37;101216.41;;;11.79;84.95
50550;BME280;36505;52.512;13.460;2023-10-09T12:32:02;101228.66;;;11.76;84.97
50550;BME280;36505;52.512;13.460;2023-10-09T12:34:29;101225.09;;;11.76;84.99
50550;BME280;36505;52.512;13.460;2023-10-09T12:36:59;101222.81;;;11.73;84.69
50550;BME280;36505;52.512;13.460;2023-10-09T12:39:27;101214.34;;;11.74;85.01
50550;BME280;36505;52.512;13.460;2023-10-09T12:41:59;101221.28;;;11.65;85.36
50550;BME280;36505;52.512;13.460;2023-10-09T12:44:32;101214.94;;;11.65;85.67
50550;BME280;36505;52.512;13.460;2023-10-09T12:47:07;101217.44;;;11.55;86.31
50550;BME280;36505;52.512;13.460;2023-10-09T12:49:33;101224.13;;;11.47;86.49
50550;BME280;36505;52.512;13.460;2023-10-09T12:51:58;101222.72;;;11.44;86.87
50550;BME280;36505;52.512;13.460;2023-10-09T12:54:27;101214.38;;;11.39;86.54
50550;BME280;36505;52.512;13.460;2023-10-09T12:56:54;101218.63;;;11.35;87.40
50550;BME280;36505;52.512;13.460;2023-10-09T12:59:19;101224.13;;;11.35;87.90
50550;BME280;36505;52.512;13.460;2023-10-09T13:01:46;101213.16;;;11.35;87.53
50550;BME280;36505;52.512;13.460;2023-10-09T13:04:17;101220.19;;;11.31;86.96
50550;BME280;36505;52.512;13.460;2023-10-09T13:06:46;101214.22;;;11.34;87.01
50550;BME280;36505;52.512;13.460;2023-10-09T13:09:13;101217.91;;;11.40;87.37
50550;BME280;36505;52.512;13.460;2023-10-09T13:11:42;101210.16;;;11.48;87.44
50550;BME280;36505;52.512;13.460;2023-10-09T13:14:12;101203.16;;;11.53;87.28
50550;BME280;36505;52.512;13.460;2023-10-09T13:16:42;101199.44;;;11.59;87.01
50550;BME280;36505;52.512;13.460;2023-10-09T13:19:08;101200.03;;;11.61;87.01
50550;BME280;36505;52.512;13.460;2023-10-09T13:21:37;101208.63;;;11.64;85.51
50550;BME280;36505;52.512;13.460;2023-10-09T13:24:04;101211.72;;;11.68;85.52
50550;BME280;36505;52.512;13.460;2023-10-09T13:26:30;101206.22;;;11.68;85.30